Rockport, TX

9:36 PM CST on December 04, 2016 (GMT -0600)
Bayshore, Key Allegro | | Change Station

Elev 6 ft 28.04 °N, 97.03 °W | Updated 2 seconds ago

Overcast
Overcast
56.0 °F
Feels Like 56.0 °F
N
22.0
Wind Variable Wind from NNE
Gusts 22.0 mph

Today
High -- | Low -- °F
--% Chance of Precip.
Yesterday
High -- | Low -- °F
Precip. -- in
Pressure 29.94 in
Visibility 10.0 miles
Clouds Overcast 600 ft
Dew Point 56 °F
Humidity 100%
Rainfall 1.07 in
Snow Depth Not available.
7:05 AM 5:32 PM
Waxing Crescent, 28% visible
METAR KTFP 050315Z AUTO 02013KT 10SM OVC006 13/12 A2994 RMK AO2 T01300117
Pressure 29.94 in
Visibility 10.0 miles
Clouds Overcast 600 ft
Dew Point 56 °F
Humidity 100%
Rainfall 1.07 in
Snow Depth Not available.
7:05 AM 5:32 PM
Waxing Crescent, 28% visible
METAR KTFP 050315Z AUTO 02013KT 10SM OVC006 13/12 A2994 RMK AO2 T01300117

10-Day Weather Forecast

Almanac

Astronomy

Dec. 04, 2016 Rise Set
Actual Time
Civil Twilight
Nautical Twilight
Astronomical Twilight
Moon
Length of Visible Light
Length of Day
Tomorrow will be .
, % of the Moon is Illuminated

Today's Extremes

State Highs State Lows

Community

WunderPhotos

Upload Photos

1,955,744 photos uploaded!

WunderBlog® & News

Nearby

Air Quality

  Air Quality AQ Index Pollutant
Not available.

Snow Depth

Station Depth Elevation

Earthquake Activity

City Distance Mag. Time & Date
Minimum magnitude displayed is 2.5.

Coastal Water Temperatures

Place Temperature

Stations

Nearby Weather Stations

Station Location Temp. Windchill Dew Point Humidity Wind Precip. Elev Updated Type
                   

Watches & Warnings

There are currently no watches in effect.